Frank Wiley Field Miles City US
ICAO: KMLS
IATA: MLS
Category: Medium
Scheduled Services: Yes

Elevation: 2630 ft
TransAlt. 18000 ft.

Airport Communications:
ASOS:135.575
GREAT FALLS RDO:122.2
CTAF/UNICOM:123

KMLS Zoom In..

If you have problems with the map follow the link
https://www.worldairports.se/pages/airport.php?
ICAO=KMLS

Runways:

(A) RW 04 length 5680 ft width 75 ft
---- / hdg 40

(B) RW 12 length 5628 ft width 100 ft
---- / hdg 123

(C) RW 22 length 5680 ft width 75 ft
---- / hdg 220

(D) RW 30 length 5628 ft width 100 ft
---- / hdg 303

Location; KMLS
Day. 22 / Time. 10.53 Zulu
* Altimeter: 30.18
* Temperature: -02° c. -28.4°f.
* Wind from: 340° Speed 07 kn.
Dewpoint: -04° c.
Visibility: 10 Statute Miles.
Clouds: Clear (automated report).

KMLS 221053Z AUTO 34007KT 10SM CLR M02/M04 A3018 RMK AO2 SLP229 T10221044 $


Wind From 340°
Speed 07 kn.

 
 
jpsmedia.com for Web Design worldairports.se 2018   terms of use